Time;durP1;ratioP1;P1;durP2;ratioP2;P2;SDS_P1;SDS_P2;PMS_P1;PMS_P2;Temp;Humidity;BMP_temperature;BMP_pressure;BME280_temperature;BME280_humidity;BME280_pressure;Samples;Min_cycle;Max_cycle;Signal;HPM_P1;HPM_P2
2024/01/11 01:58:07;;;;;;;3.47;3.03;;;;;;;4.21;100.00;102528.16;4971061;28;20085;-95
2024/01/11 04:13:24;;;;;;;;;;;;;;;;;;;;;
2024/01/11 04:20:38;;;;;;;2.90;0.68;;;;;;;4.88;100.00;102580.06;4947390;28;20098;-95
2024/01/11 04:23:23;;;;;;;8.90;1.52;;;;;;;4.84;100.00;102571.47;4903552;29;20129;-96
2024/01/11 04:26:44;;;;;;;1.85;0.70;;;;;;;4.87;100.00;102583.59;4916663;28;20047;-94
2024/01/11 04:36:52;;;;;;;3.30;0.88;;;;;;;4.84;100.00;102584.59;4894658;29;20032;-95
2024/01/11 04:40:11;;;;;;;3.28;0.68;;;;;;;4.78;100.00;102585.63;4874517;29;20051;-95
2024/01/11 04:48:38;;;;;;;6.38;0.70;;;;;;;4.76;100.00;102582.19;4809503;29;20041;-96
2024/01/11 04:51:32;;;;;;;2.13;0.73;;;;;;;4.75;100.00;102580.50;4791202;29;20054;-96
2024/01/11 04:54:01;;;;;;;1.38;0.85;;;;;;;4.70;100.00;102590.28;4822614;29;20108;-96
2024/01/11 04:57:00;;;;;;;1.92;0.70;;;;;;;4.74;100.00;102589.28;4874430;29;20040;-94
2024/01/11 04:59:50;;;;;;;2.25;0.90;;;;;;;4.72;100.00;102580.59;4895258;29;20485;-96
2024/01/11 05:03:10;;;;;;;3.88;0.95;;;;;;;4.75;100.00;102592.72;4907818;29;20044;-95
2024/01/11 05:06:04;;;;;;;6.70;0.77;;;;;;;4.75;100.00;102592.72;4893349;29;20032;-96
2024/01/11 05:08:33;;;;;;;4.95;0.70;;;;;;;4.79;100.00;102610.94;4897628;29;20049;-91
2024/01/11 05:11:38;;;;;;;4.20;1.02;;;;;;;4.78;100.00;102603.97;4885457;29;20493;-95
2024/01/11 05:14:04;;;;;;;4.35;1.10;;;;;;;4.72;100.00;102597.19;4887533;29;20049;-95
2024/01/11 05:17:00;;;;;;;3.67;0.40;;;;;;;4.81;100.00;102613.50;4894227;28;20055;-95
2024/01/11 05:19:33;;;;;;;2.05;0.70;;;;;;;4.81;100.00;102606.50;4903542;29;20058;-96
2024/01/11 05:22:27;;;;;;;1.58;0.70;;;;;;;4.89;100.00;102621.94;4944690;28;20065;-96
2024/01/11 05:25:59;;;;;;;;;;;;;;;;;;;;;
2024/01/11 05:28:40;;;;;;;3.60;0.75;;;;;;;4.81;100.00;102626.63;4928530;28;20046;-96
2024/01/11 05:31:30;;;;;;;;;;;;;;;;;;;;;
2024/01/11 05:34:46;;;;;;;3.13;0.80;;;;;;;4.75;100.00;102630.28;4935382;29;20097;-95
2024/01/11 05:37:33;;;;;;;2.63;0.52;;;;;;;4.78;100.00;102638.03;4942007;28;20037;-96
2024/01/11 05:39:59;;;;;;;5.28;1.25;;;;;;;4.76;100.00;102642.47;4908771;29;20035;-96
2024/01/11 05:42:24;;;;;;;2.38;0.68;;;;;;;4.81;100.00;102645.78;4932628;29;20161;-96
2024/01/11 05:44:51;;;;;;;2.50;0.40;;;;;;;4.81;100.00;102645.78;4908014;29;20484;-95
2024/01/11 05:47:17;;;;;;;3.83;0.70;;;;;;;4.80;100.00;102638.84;4899999;28;20074;-95
2024/01/11 05:49:43;;;;;;;3.95;0.70;;;;;;;4.79;100.00;102646.75;4923436;29;20070;-95
2024/01/11 05:52:09;;;;;;;5.95;0.77;;;;;;;4.82;100.00;102647.53;4912084;28;20050;-96
2024/01/11 05:54:35;;;;;;;5.20;0.80;;;;;;;4.82;100.00;102650.16;4939103;29;20119;-95
2024/01/11 05:57:01;;;;;;;3.80;0.70;;;;;;;4.82;100.00;102646.66;4906512;28;20070;-95
2024/01/11 05:59:26;;;;;;;6.00;0.57;;;;;;;4.80;100.00;102643.22;4928918;29;20035;-95
2024/01/11 06:01:52;;;;;;;7.13;0.90;;;;;;;4.86;100.00;102656.13;4929842;29;20043;-84
2024/01/11 06:04:18;;;;;;;2.10;0.47;;;;;;;4.77;100.00;102649.44;4910231;29;20047;-95
2024/01/11 06:06:44;;;;;;;0.75;0.50;;;;;;;4.73;100.00;102639.94;4927589;29;20023;-95
2024/01/11 06:09:10;;;;;;;6.60;0.70;;;;;;;4.76;100.00;102646.88;4897804;29;20036;-96
2024/01/11 06:11:36;;;;;;;7.07;0.70;;;;;;;4.70;100.00;102645.28;4916561;28;20122;-95
2024/01/11 06:14:02;;;;;;;3.88;1.55;;;;;;;4.74;100.00;102662.63;4908905;29;20107;-96
2024/01/11 06:16:28;;;;;;;3.17;0.90;;;;;;;4.75;100.00;102668.72;4910508;29;20491;-96
2024/01/11 06:18:54;;;;;;;2.38;0.60;;;;;;;4.76;100.00;102671.28;4907993;29;20031;-95
2024/01/11 06:21:20;;;;;;;5.75;0.82;;;;;;;4.73;100.00;102663.53;4921879;28;20070;-96
2024/01/11 06:23:46;;;;;;;2.65;0.68;;;;;;;4.71;100.00;102660.97;4904100;29;20071;-95
2024/01/11 06:26:12;;;;;;;2.55;0.60;;;;;;;4.71;100.00;102665.34;4923567;28;20919;-95
2024/01/11 06:28:38;;;;;;;2.30;0.77;;;;;;;4.70;100.00;102671.50;4925484;29;20031;-94
2024/01/11 06:31:04;;;;;;;4.45;0.70;;;;;;;4.68;100.00;102674.16;4905895;28;20039;-95
2024/01/11 06:33:29;;;;;;;2.17;0.57;;;;;;;4.67;100.00;102674.22;4920879;29;20519;-96
2024/01/11 06:35:55;;;;;;;6.80;0.90;;;;;;;4.71;100.00;102676.69;4924166;29;20035;-96
2024/01/11 06:38:21;;;;;;;6.47;1.00;;;;;;;4.74;100.00;102691.47;4904273;29;20063;-95
2024/01/11 06:40:48;;;;;;;4.88;0.63;;;;;;;4.72;100.00;102693.25;4915065;28;20043;-96
2024/01/11 06:43:15;;;;;;;3.58;0.70;;;;;;;4.70;100.00;102688.06;4910114;29;20039;-95
2024/01/11 06:45:42;;;;;;;8.20;0.80;;;;;;;4.73;100.00;102700.19;4923473;28;20043;-95
2024/01/11 06:48:08;;;;;;;4.75;0.75;;;;;;;4.65;100.00;102697.00;4903832;29;20091;-95
2024/01/11 06:50:34;;;;;;;5.13;1.08;;;;;;;4.65;100.00;102710.09;4919407;29;20441;-95
2024/01/11 06:53:01;;;;;;;6.03;0.70;;;;;;;4.65;100.00;102718.78;4922938;29;20061;-95
2024/01/11 06:55:27;;;;;;;7.13;0.85;;;;;;;4.61;100.00;102713.69;4914879;29;20043;-96
2024/01/11 06:57:53;;;;;;;4.38;0.90;;;;;;;4.56;100.00;102706.00;4908711;29;20043;-95
2024/01/11 07:00:19;;;;;;;5.57;0.85;;;;;;;4.55;100.00;102722.63;4922026;28;20027;-95
2024/01/11 07:02:45;;;;;;;5.53;1.83;;;;;;;4.53;100.00;102724.41;4910720;29;20051;-96
2024/01/11 07:05:11;;;;;;;4.15;0.90;;;;;;;4.49;100.00;102710.56;4924024;28;20373;-95
2024/01/11 07:07:37;;;;;;;6.70;0.70;;;;;;;4.49;100.00;102722.81;4923368;29;20129;-95
2024/01/11 07:10:05;;;;;;;3.47;0.50;;;;;;;4.45;100.00;102732.53;4912987;28;20507;-96
2024/01/11 07:12:32;;;;;;;5.88;1.08;;;;;;;4.47;100.00;102741.19;4922356;29;20067;-95
2024/01/11 07:14:58;;;;;;;6.32;1.35;;;;;;;4.41;100.00;102739.59;4917590;28;20043;-94
2024/01/11 07:17:25;;;;;;;2.63;0.65;;;;;;;4.40;100.00;102734.41;4907705;29;20035;-95
2024/01/11 07:19:51;;;;;;;7.30;0.70;;;;;;;4.43;100.00;102732.56;4915097;29;20040;-95
2024/01/11 07:22:16;;;;;;;4.80;0.75;;;;;;;4.42;100.00;102743.09;4920066;29;20476;-96
2024/01/11 07:24:43;;;;;;;5.30;0.82;;;;;;;4.40;100.00;102739.66;4924741;28;20422;-96
2024/01/11 07:27:09;;;;;;;6.03;0.80;;;;;;;4.42;100.00;102748.31;4903642;28;20039;-96
2024/01/11 07:29:35;;;;;;;4.78;0.77;;;;;;;4.48;100.00;102763.84;4905831;28;20510;-95
2024/01/11 07:32:01;;;;;;;3.70;1.10;;;;;;;4.48;100.00;102756.00;4924647;29;20566;-95
2024/01/11 07:34:28;;;;;;;7.85;1.00;;;;;;;4.51;100.00;102761.13;4902806;29;20059;-94
2024/01/11 07:36:53;;;;;;;4.20;0.93;;;;;;;4.51;100.00;102762.91;4919760;29;20105;-95
2024/01/11 07:39:19;;;;;;;4.78;0.70;;;;;;;4.55;100.00;102769.78;4917236;29;20047;-95
2024/01/11 07:41:45;;;;;;;4.57;0.68;;;;;;;4.53;100.00;102775.06;4901746;29;20028;-94
2024/01/11 07:44:12;;;;;;;6.35;1.00;;;;;;;4.53;100.00;102772.44;4921009;29;20053;-95
2024/01/11 07:46:37;;;;;;;4.63;0.70;;;;;;;4.53;100.00;102782.91;4922257;29;20102;-95
2024/01/11 07:49:04;;;;;;;3.85;0.77;;;;;;;4.55;100.00;102785.47;4907819;28;20031;-95
2024/01/11 07:51:30;;;;;;;8.32;1.08;;;;;;;4.56;100.00;102790.69;4920127;28;20066;-96
2024/01/11 07:53:56;;;;;;;6.45;1.20;;;;;;;4.56;100.00;102782.81;4929994;29;20035;-94
2024/01/11 07:56:22;;;;;;;5.32;0.90;;;;;;;4.54;100.00;102791.63;4949735;28;20138;-93
2024/01/11 07:58:48;;;;;;;7.40;1.00;;;;;;;4.58;100.00;102804.59;4925069;28;20031;-95
2024/01/11 08:01:15;;;;;;;7.20;1.17;;;;;;;4.61;100.00;102805.38;4922016;29;20046;-94
2024/01/11 08:03:44;;;;;;;5.25;1.08;;;;;;;4.59;100.00;102795.81;4906088;29;20035;-95
2024/01/11 08:06:11;;;;;;;9.82;1.52;;;;;;;4.57;100.00;102799.41;4935920;29;20045;-96
2024/01/11 08:08:40;;;;;;;6.07;1.05;;;;;;;4.58;100.00;102798.50;4907444;28;20028;-96
2024/01/11 08:11:12;;;;;;;6.38;0.80;;;;;;;4.65;100.00;102800.00;4907550;29;20042;-95
2024/01/11 08:13:38;;;;;;;8.00;1.20;;;;;;;4.63;100.00;102809.69;4922881;29;20128;-95
2024/01/11 08:16:09;;;;;;;7.53;1.25;;;;;;;4.66;100.00;102811.34;4912407;29;20035;-96
2024/01/11 08:18:35;;;;;;;8.40;1.00;;;;;;;4.63;100.00;102804.44;4900066;28;20165;-96
2024/01/11 08:21:02;;;;;;;7.10;1.40;;;;;;;4.64;100.00;102805.28;4921947;29;20043;-96
2024/01/11 08:23:31;;;;;;;12.02;1.50;;;;;;;4.66;100.00;102821.81;4909099;28;20053;-96
2024/01/11 08:25:58;;;;;;;8.05;0.95;;;;;;;4.62;100.00;102809.75;4899021;29;20050;-95
2024/01/11 08:28:23;;;;;;;8.82;2.03;;;;;;;4.66;100.00;102814.84;4907281;28;20126;-92
2024/01/11 08:30:49;;;;;;;21.55;3.78;;;;;;;4.66;100.00;102817.47;4913340;28;20051;-95
2024/01/11 08:33:16;;;;;;;10.93;3.53;;;;;;;4.66;100.00;102809.59;4911621;29;20047;-95
2024/01/11 08:35:42;;;;;;;12.02;2.85;;;;;;;4.64;100.00;102818.38;4925991;28;20046;-95
2024/01/11 08:38:08;;;;;;;14.88;3.55;;;;;;;4.66;100.00;102827.06;4927842;29;20043;-95
2024/01/11 08:40:35;;;;;;;15.30;3.25;;;;;;;4.65;100.00;102826.19;4920930;29;20090;-95
2024/01/11 08:43:06;;;;;;;12.55;2.33;;;;;;;4.68;100.00;102826.09;4947046;28;20054;-95
2024/01/11 08:45:32;;;;;;;8.90;1.45;;;;;;;4.73;100.00;102833.81;4910137;29;20038;-95
2024/01/11 08:47:58;;;;;;;7.65;1.20;;;;;;;4.72;100.00;102835.59;4923653;28;20514;-95
2024/01/11 08:50:23;;;;;;;10.23;1.65;;;;;;;4.68;100.00;102838.38;4906133;29;20071;-95
2024/01/11 08:53:03;;;;;;;7.53;1.77;;;;;;;4.78;100.00;102842.41;4925530;29;20031;-96
2024/01/11 08:55:28;;;;;;;13.73;1.67;;;;;;;4.64;100.00;102855.94;4950481;28;20165;-93
2024/01/11 08:57:54;;;;;;;8.55;1.40;;;;;;;4.65;100.00;102857.63;4955548;28;20475;-93
2024/01/11 09:00:20;;;;;;;14.13;2.25;;;;;;;4.68;100.00;102856.72;4924949;23;20063;-93
2024/01/11 09:02:46;;;;;;;5.82;1.75;;;;;;;4.71;100.00;102859.25;4893268;29;20085;-94
2024/01/11 09:05:14;;;;;;;13.10;1.95;;;;;;;4.79;100.00;102861.63;4897981;29;20040;-93
2024/01/11 09:07:40;;;;;;;6.07;1.27;;;;;;;4.78;100.00;102870.41;4910066;29;20035;-94
2024/01/11 09:10:08;;;;;;;7.57;1.60;;;;;;;4.81;100.00;102868.53;4899400;29;20054;-94
2024/01/11 09:12:36;;;;;;;5.28;1.00;;;;;;;4.81;100.00;102871.13;4889393;29;20095;-94
2024/01/11 09:15:02;;;;;;;9.88;1.70;;;;;;;4.80;100.00;102874.69;4914487;29;20098;-93
2024/01/11 09:17:28;;;;;;;11.73;2.35;;;;;;;4.78;100.00;102875.63;4913085;29;20046;-94
2024/01/11 09:19:54;;;;;;;4.97;1.33;;;;;;;4.79;100.00;102888.69;4900133;29;20035;-94
2024/01/11 09:22:19;;;;;;;10.85;2.20;;;;;;;4.81;100.00;102891.28;4900567;29;20044;-93
2024/01/11 09:24:45;;;;;;;9.70;3.10;;;;;;;4.80;100.00;102895.63;4893523;29;20079;-94
2024/01/11 09:27:11;;;;;;;11.32;2.60;;;;;;;4.82;100.00;102890.34;4916096;29;20063;-94
2024/01/11 09:29:45;;;;;;;13.57;3.15;;;;;;;4.88;100.00;102899.78;4903400;29;20136;-93
2024/01/11 09:32:12;;;;;;;12.43;2.38;;;;;;;4.86;100.00;102909.47;4889914;29;20032;-93
2024/01/11 09:34:38;;;;;;;7.25;1.90;;;;;;;4.83;100.00;102899.91;4887945;29;20038;-94
2024/01/11 09:37:05;;;;;;;8.20;1.55;;;;;;;4.86;100.00;102909.47;4904856;29;20035;-94
2024/01/11 09:39:30;;;;;;;9.43;2.00;;;;;;;4.83;100.00;102903.41;4904102;29;20131;-94
2024/01/11 09:42:10;;;;;;;15.13;2.55;;;;;;;4.91;100.00;102895.31;4889514;29;20227;-94
2024/01/11 09:44:40;;;;;;;12.30;2.33;;;;;;;4.84;100.00;102899.88;4889497;29;20036;-95
2024/01/11 09:47:08;;;;;;;5.60;1.60;;;;;;;4.92;100.00;102901.44;4903758;29;20035;-94
2024/01/11 09:49:37;;;;;;;7.65;1.40;;;;;;;4.95;100.00;102915.28;4920969;29;20123;-94
2024/01/11 09:52:05;;;;;;;10.25;2.45;;;;;;;4.97;100.00;102912.59;4888871;29;20039;-95
2024/01/11 09:54:30;;;;;;;9.88;2.10;;;;;;;4.98;100.00;102914.34;4889834;29;20035;-95
2024/01/11 09:56:59;;;;;;;10.95;2.15;;;;;;;5.05;100.00;102917.63;4879696;29;20040;-94
2024/01/11 09:59:25;;;;;;;11.52;3.40;;;;;;;5.05;100.00;102922.84;4896958;29;20044;-94
2024/01/11 10:01:52;;;;;;;10.07;1.95;;;;;;;5.07;100.00;102923.69;4885586;29;20067;-94
2024/01/11 10:04:18;;;;;;;6.82;1.45;;;;;;;5.14;100.00;102924.38;4885335;29;20059;-94
2024/01/11 10:06:45;;;;;;;7.45;1.40;;;;;;;5.18;100.00;102920.72;4883701;29;20071;-94
2024/01/11 10:09:11;;;;;;;5.32;2.08;;;;;;;5.20;100.00;102924.16;4868154;29;20029;-94
2024/01/11 10:11:37;;;;;;;6.63;1.50;;;;;;;5.25;100.00;102929.28;4897977;29;20043;-94
2024/01/11 10:14:05;;;;;;;8.38;1.70;;;;;;;5.28;100.00;102929.19;4886302;29;20111;-94
2024/01/11 10:16:31;;;;;;;8.35;1.30;;;;;;;5.34;100.00;102928.97;4894806;29;20043;-94
2024/01/11 10:18:57;;;;;;;9.38;1.38;;;;;;;5.39;100.00;102924.47;4870419;29;20029;-94
2024/01/11 10:21:24;;;;;;;8.40;1.27;;;;;;;5.44;100.00;102935.66;4870821;29;20042;-94
2024/01/11 10:23:50;;;;;;;3.97;1.02;;;;;;;5.49;100.00;102939.91;4869547;29;20068;-94
2024/01/11 10:26:17;;;;;;;8.88;1.55;;;;;;;5.59;100.00;102952.66;4869785;29;20139;-94
2024/01/11 10:28:46;;;;;;;9.20;1.67;;;;;;;5.68;100.00;102964.66;4884663;29;20055;-93
2024/01/11 10:31:14;;;;;;;7.07;1.17;;;;;;;5.73;100.00;102964.50;4866481;29;20039;-94
2024/01/11 10:33:40;;;;;;;7.07;1.05;;;;;;;5.78;100.00;102967.81;4872972;29;20040;-94
2024/01/11 10:36:07;;;;;;;3.47;1.00;;;;;;;5.82;100.00;102977.31;4883864;29;20039;-94
2024/01/11 10:38:39;;;;;;;7.72;2.13;;;;;;;5.88;100.00;102975.38;4875283;29;20115;-94
2024/01/11 10:41:06;;;;;;;7.25;1.50;;;;;;;5.89;100.00;102987.63;4865439;29;20047;-94
2024/01/11 10:43:36;;;;;;;11.35;1.75;;;;;;;5.90;100.00;102981.44;4900941;29;20118;-94
2024/01/11 10:46:06;;;;;;;10.88;1.85;;;;;;;5.94;100.00;102981.28;4884318;29;20198;-93
2024/01/11 10:48:37;;;;;;;12.23;1.50;;;;;;;5.99;100.00;102983.78;4884547;29;20059;-94
2024/01/11 10:51:07;;;;;;;8.30;1.17;;;;;;;6.05;100.00;102994.09;4866429;29;20032;-94
2024/01/11 10:53:50;;;;;;;9.52;1.23;;;;;;;6.07;100.00;102979.16;4883177;29;20559;-94
2024/01/11 10:56:16;;;;;;;5.00;1.10;;;;;;;6.03;100.00;102981.91;4897519;29;20033;-94
2024/01/11 10:58:43;;;;;;;8.25;1.20;;;;;;;6.07;100.00;102987.03;4868709;29;20468;-94
2024/01/11 11:01:13;;;;;;;7.20;1.45;;;;;;;6.10;100.00;102987.84;4875771;29;20091;-94
2024/01/11 11:03:42;;;;;;;8.30;1.48;;;;;;;6.08;100.00;102990.53;4911166;29;20039;-94
2024/01/11 11:06:09;;;;;;;6.32;1.63;;;;;;;6.11;100.00;102985.16;4900275;29;20040;-93
2024/01/11 11:08:39;;;;;;;4.10;1.10;;;;;;;6.12;100.00;102988.63;4888187;29;20038;-94
2024/01/11 11:11:06;;;;;;;11.13;1.65;;;;;;;6.08;100.00;102988.75;4892804;29;20039;-95
2024/01/11 11:13:33;;;;;;;8.50;1.42;;;;;;;6.11;100.00;102995.69;4884500;29;20040;-94
2024/01/11 11:15:58;;;;;;;6.97;1.33;;;;;;;6.12;100.00;103000.00;4899323;29;20036;-94
2024/01/11 11:18:25;;;;;;;15.13;2.17;;;;;;;6.10;100.00;102999.19;4908556;29;20421;-94
2024/01/11 11:20:51;;;;;;;8.82;1.40;;;;;;;6.11;100.00;103003.56;4902074;29;20043;-94
2024/01/11 11:23:18;;;;;;;6.53;1.42;;;;;;;6.11;100.00;102997.44;4898253;29;20032;-94
2024/01/11 11:25:49;;;;;;;6.65;1.25;;;;;;;6.18;100.00;103005.06;4909331;29;20034;-94
2024/01/11 11:30:49;;;;;;;6.65;1.85;;;;;;;6.20;100.00;102999.75;4966731;28;20055;-96
2024/01/11 11:33:21;;;;;;;5.57;1.15;;;;;;;6.27;100.00;103003.91;4957528;28;20090;-94
2024/01/11 11:35:48;;;;;;;9.30;1.70;;;;;;;6.26;100.00;103007.41;4917097;29;20067;-93
2024/01/11 11:38:22;;;;;;;11.30;1.65;;;;;;;6.30;100.00;102998.53;4908167;29;20070;-93
2024/01/11 11:40:51;;;;;;;8.05;1.80;;;;;;;6.31;100.00;102991.50;4921371;29;20038;-93
2024/01/11 11:43:17;;;;;;;8.55;2.10;;;;;;;6.33;100.00;102992.31;4935931;29;20043;-93
2024/01/11 11:50:10;;;;;;;5.32;1.00;;;;;;;6.37;100.00;102993.91;4939190;28;20051;-96
2024/01/11 11:53:02;;;;;;;5.20;1.30;;;;;;;6.39;100.00;102989.47;4920916;28;20039;-94
2024/01/11 11:55:29;;;;;;;8.02;2.33;;;;;;;6.36;100.00;102991.34;4923614;29;20433;-93
2024/01/11 11:57:55;;;;;;;3.95;1.30;;;;;;;6.32;100.00;102994.06;4902040;28;20134;-94
2024/01/11 12:00:30;;;;;;;4.20;1.30;;;;;;;6.39;100.00;102983.34;4905480;28;20082;-94
2024/01/11 12:07:55;;;;;;;13.98;1.60;;;;;;;6.31;100.00;102978.38;4891679;29;20047;-95
2024/01/11 12:10:48;;;;;;;5.70;1.40;;;;;;;6.36;100.00;102984.31;4869094;29;20136;-94
2024/01/11 12:13:26;;;;;;;3.33;1.08;;;;;;;6.39;100.00;102983.34;4866752;29;20044;-95
2024/01/11 12:20:22;;;;;;;8.90;1.60;;;;;;;6.47;100.00;102969.97;4957442;28;20037;-95
2024/01/11 12:23:18;;;;;;;5.20;0.90;;;;;;;6.51;100.00;102961.91;4910388;28;20072;-94
2024/01/11 12:26:31;;;;;;;6.22;0.95;;;;;;;6.56;100.00;102967.00;4911968;29;20036;-94
2024/01/11 12:29:15;;;;;;;4.03;1.27;;;;;;;6.52;100.00;102968.88;4884319;29;20459;-94
2024/01/11 12:39:08;;;;;;;6.03;1.52;;;;;;;6.60;100.00;102968.59;4911491;29;20032;-94
2024/01/11 12:41:59;;;;;;;8.27;1.50;;;;;;;6.56;100.00;102967.84;4909648;29;20050;-93
2024/01/11 12:44:42;;;;;;;2.42;0.90;;;;;;;6.54;100.00;102985.47;4928524;29;20039;-95
2024/01/11 12:47:56;;;;;;;5.88;1.80;;;;;;;6.59;100.00;102982.66;4946040;28;20046;-95
2024/01/11 12:58:28;;;;;;;4.10;1.10;;;;;;;6.60;100.00;102981.75;4927823;29;20050;-94
2024/01/11 13:01:37;;;;;;;5.90;1.25;;;;;;;6.58;100.00;102976.53;4892291;29;20051;-95
2024/01/11 13:04:12;;;;;;;7.63;1.15;;;;;;;6.55;100.00;102970.53;4930159;29;20088;-95
2024/01/11 13:06:46;;;;;;;6.20;1.35;;;;;;;6.55;100.00;102973.16;4914390;29;20039;-94
2024/01/11 13:09:35;;;;;;;5.05;0.98;;;;;;;6.69;100.00;102977.91;4900484;29;20060;-94
2024/01/11 13:12:07;;;;;;;5.63;1.50;;;;;;;6.63;100.00;102970.25;4929940;29;20099;-94
2024/01/11 13:14:39;;;;;;;2.10;1.20;;;;;;;6.64;100.00;102970.19;4913354;29;20059;-94
2024/01/11 13:17:11;;;;;;;5.20;1.17;;;;;;;6.66;100.00;102967.50;4921383;29;20047;-94
2024/01/11 13:19:48;;;;;;;5.72;1.42;;;;;;;6.64;100.00;102962.31;4902640;29;20040;-94
2024/01/11 13:22:29;;;;;;;5.75;1.30;;;;;;;6.73;100.00;102962.91;4900500;29;20035;-94
2024/01/11 13:25:09;;;;;;;5.65;1.83;;;;;;;6.70;100.00;102950.72;4916243;29;20046;-95
2024/01/11 13:28:00;;;;;;;3.88;0.93;;;;;;;6.75;100.00;102964.56;4899183;29;20055;-95
2024/01/11 13:30:30;;;;;;;5.85;1.27;;;;;;;6.67;100.00;102956.94;4913946;29;20058;-94
2024/01/11 13:33:01;;;;;;;9.27;1.10;;;;;;;6.75;100.00;102958.44;4903546;29;20031;-95
2024/01/11 13:35:28;;;;;;;6.38;1.60;;;;;;;6.75;100.00;102955.81;4902124;29;20205;-94
2024/01/11 13:38:28;;;;;;;7.20;1.63;;;;;;;6.73;100.00;102947.13;4934506;29;20503;-94
2024/01/11 13:40:54;;;;;;;6.00;1.55;;;;;;;6.80;100.00;102946.84;4920201;29;20063;-94
2024/01/11 13:43:20;;;;;;;4.65;1.40;;;;;;;6.86;100.00;102944.91;4902132;29;20070;-94
2024/01/11 13:45:46;;;;;;;5.63;1.45;;;;;;;6.91;100.00;102942.97;4911952;29;20498;-95
2024/01/11 13:48:12;;;;;;;4.82;1.67;;;;;;;6.91;100.00;102938.53;4918248;29;20039;-95
2024/01/11 13:50:38;;;;;;;6.25;2.17;;;;;;;6.98;100.00;102944.44;4937404;29;20094;-94
2024/01/11 13:53:06;;;;;;;7.40;1.58;;;;;;;7.13;100.00;102944.75;4936569;29;20043;-94
2024/01/11 13:55:37;;;;;;;7.53;1.80;;;;;;;7.23;100.00;102935.59;4910411;29;20039;-94
2024/01/11 13:58:03;;;;;;;2.67;1.40;;;;;;;7.29;100.00;102948.50;4924947;29;20067;-94
2024/01/11 14:00:30;;;;;;;5.30;1.52;;;;;;;7.47;100.00;102935.53;4902136;29;20039;-95
2024/01/11 14:02:56;;;;;;;7.35;2.17;;;;;;;7.47;100.00;102935.53;4956261;23;20062;-96
2024/01/11 14:05:22;;;;;;;4.32;1.17;;;;;;;7.51;100.00;102934.50;4912818;29;20027;-95
2024/01/11 14:07:54;;;;;;;8.25;1.20;;;;;;;7.48;100.00;102937.25;4942952;23;20043;-96
2024/01/11 14:10:21;;;;;;;4.63;1.25;;;;;;;7.42;100.00;102927.81;4914840;29;20040;-96
2024/01/11 14:12:51;;;;;;;4.35;1.20;;;;;;;7.34;100.00;102939.56;4909806;29;20158;-96
2024/01/11 14:15:17;;;;;;;8.95;1.95;;;;;;;7.30;100.00;102933.56;4892070;29;20063;-96
2024/01/11 14:17:43;;;;;;;4.30;1.13;;;;;;;7.27;100.00;102934.56;4900219;29;20032;-96
2024/01/11 14:20:12;;;;;;;7.70;1.52;;;;;;;7.19;100.00;102940.13;4916984;29;20048;-96
2024/01/11 14:22:40;;;;;;;6.85;1.50;;;;;;;7.25;100.00;102939.00;4927846;29;20098;-96
2024/01/11 14:25:07;;;;;;;7.38;1.17;;;;;;;7.23;100.00;102924.22;4898948;29;20050;-95
2024/01/11 14:27:33;;;;;;;5.60;0.98;;;;;;;7.08;100.00;102931.78;4894889;29;20118;-96
2024/01/11 14:29:59;;;;;;;3.92;1.00;;;;;;;7.13;100.00;102931.59;4912344;29;20042;-96
2024/01/11 14:32:27;;;;;;;6.07;1.38;;;;;;;7.07;100.00;102928.28;4887866;29;20112;-96
2024/01/11 14:34:57;;;;;;;5.50;1.15;;;;;;;7.12;100.00;102927.28;4917371;29;20052;-96
2024/01/11 14:37:28;;;;;;;7.07;1.80;;;;;;;7.04;100.00;102924.94;4919321;29;20052;-96
2024/01/11 14:43:24;;;;;;;7.90;1.40;;;;;;;7.07;100.00;102932.72;4911771;29;20044;-95
2024/01/11 14:45:50;;;;;;;7.43;1.63;;;;;;;7.05;100.00;102921.38;4895159;29;20070;-96
2024/01/11 14:48:17;;;;;;;5.07;1.10;;;;;;;7.04;100.00;102923.16;4904905;29;20477;-96
2024/01/11 14:50:43;;;;;;;7.88;1.20;;;;;;;7.05;100.00;102913.50;4885665;29;20044;-96
2024/01/11 14:53:09;;;;;;;4.70;1.25;;;;;;;6.96;100.00;102914.69;4900022;29;20055;-95
2024/01/11 14:55:37;;;;;;;9.40;2.28;;;;;;;7.01;100.00;102911.88;4926001;29;20031;-96
2024/01/11 14:58:03;;;;;;;6.80;2.42;;;;;;;6.99;100.00;102913.75;4903372;29;20388;-96
2024/01/11 15:00:34;;;;;;;5.50;2.30;;;;;;;6.93;100.00;102915.69;4897799;29;20047;-96
2024/01/11 15:03:03;;;;;;;3.33;1.35;;;;;;;6.87;100.00;102922.94;4903564;29;20040;-95
2024/01/11 15:09:58;;;;;;;8.27;1.33;;;;;;;6.90;100.00;102921.06;4933262;29;20058;-96
2024/01/11 15:23:25;;;;;;;9.60;1.40;;;;;;;6.79;100.00;102912.72;4929818;29;20501;-95
2024/01/11 15:25:52;;;;;;;6.20;1.13;;;;;;;6.70;100.00;102922.66;4901023;29;20057;-96
2024/01/11 15:28:37;;;;;;;4.50;1.10;;;;;;;6.86;100.00;102929.13;4888558;29;20768;-95
2024/01/11 15:39:09;;;;;;;4.85;1.13;;;;;;;6.77;100.00;102936.44;4936778;29;21021;-95
2024/01/11 15:42:28;;;;;;;5.75;2.13;;;;;;;6.84;100.00;102937.06;4885373;29;20043;-89
2024/01/11 15:44:53;;;;;;;4.32;1.05;;;;;;;6.78;100.00;102943.44;4891452;29;20140;-95
2024/01/11 15:47:29;;;;;;;3.33;0.65;;;;;;;6.76;100.00;102936.50;4895635;29;20126;-96
2024/01/11 15:49:55;;;;;;;4.97;0.77;;;;;;;6.74;100.00;102947.06;4900636;29;20556;-95
2024/01/11 15:52:46;;;;;;;3.30;1.08;;;;;;;6.77;100.00;102936.44;4879428;29;20039;-95
2024/01/11 15:55:16;;;;;;;3.08;1.17;;;;;;;6.72;100.00;102937.53;4894519;29;20127;-94
2024/01/11 15:57:45;;;;;;;5.57;1.13;;;;;;;6.72;100.00;102935.75;4913360;29;20042;-96
2024/01/11 16:00:12;;;;;;;4.78;1.00;;;;;;;6.66;100.00;102941.22;4894334;29;20075;-95
2024/01/11 16:06:37;;;;;;;5.88;2.20;;;;;;;6.58;100.00;102939.75;4921947;29;20126;-95
2024/01/11 16:09:05;;;;;;;3.75;0.93;;;;;;;6.56;100.00;102935.47;4902419;29;20051;-95
2024/01/11 16:11:32;;;;;;;7.63;1.42;;;;;;;6.54;100.00;102939.91;4896708;29;20040;-95
2024/01/11 16:14:09;;;;;;;4.60;1.15;;;;;;;6.55;100.00;102937.25;4918971;29;20038;-96
2024/01/11 16:16:35;;;;;;;2.88;1.60;;;;;;;6.48;100.00;102943.63;4901623;29;20024;-96
2024/01/11 16:19:01;;;;;;;5.60;1.45;;;;;;;6.46;100.00;102950.72;4891545;29;20061;-95
2024/01/11 16:21:28;;;;;;;5.95;1.05;;;;;;;6.44;100.00;102957.78;4887209;29;20039;-96
2024/01/11 16:23:56;;;;;;;3.22;0.82;;;;;;;6.44;100.00;102952.53;4893736;29;21010;-95
2024/01/11 16:26:22;;;;;;;3.33;0.80;;;;;;;6.43;100.00;102954.28;4886656;29;20047;-93
2024/01/11 16:28:49;;;;;;;6.82;1.02;;;;;;;6.40;100.00;102957.03;4913113;29;20024;-94
2024/01/11 16:31:28;;;;;;;4.28;0.93;;;;;;;6.41;100.00;102961.38;4898359;29;20036;-94
2024/01/11 16:33:55;;;;;;;4.60;1.80;;;;;;;6.36;100.00;102958.06;4893716;29;20130;-95
2024/01/11 16:36:22;;;;;;;8.75;2.28;;;;;;;6.37;100.00;102965.00;4909473;29;20057;-96
2024/01/11 16:38:48;;;;;;;7.63;2.10;;;;;;;6.29;100.00;102953.94;4887003;29;20055;-95
2024/01/11 17:19:36;;;;;;;6.75;1.35;;;;;;;5.84;100.00;102985.97;4836295;29;20530;-95
2024/01/11 17:22:02;;;;;;;3.78;1.33;;;;;;;5.86;100.00;102990.34;4901862;29;20142;-93
2024/01/11 17:33:53;;;;;;;5.65;1.80;;;;;;;5.83;100.00;102996.53;4932880;29;20065;-95
2024/01/11 17:36:26;;;;;;;5.07;2.10;;;;;;;5.80;100.00;102994.00;4889823;29;20051;-95
2024/01/11 17:43:52;;;;;;;8.07;2.25;;;;;;;5.80;100.00;103013.25;4894459;29;20048;-96
2024/01/11 17:46:32;;;;;;;7.45;3.30;;;;;;;5.87;100.00;103016.53;4923862;29;20718;-95
2024/01/11 17:49:18;;;;;;;6.32;1.73;;;;;;;5.82;100.00;103003.56;4906385;29;20051;-94
2024/01/11 17:59:16;;;;;;;8.43;2.63;;;;;;;5.85;100.00;102999.97;4934252;29;20034;-93
2024/01/11 18:09:43;;;;;;;8.15;2.38;;;;;;;5.96;100.00;103011.00;4878012;29;20047;-96
2024/01/11 18:12:17;;;;;;;7.13;2.42;;;;;;;5.82;100.00;103000.94;4884889;29;20489;-95
2024/01/11 19:10:28;;;;;;;9.25;3.50;;;;;;;5.79;100.00;103047.41;4923089;29;20051;-96
2024/01/11 19:12:57;;;;;;;6.25;2.67;;;;;;;5.82;100.00;103048.19;4909684;29;20043;-94
2024/01/11 19:15:23;;;;;;;3.30;1.80;;;;;;;5.83;100.00;103047.28;4922267;29;20036;-95
2024/01/11 19:17:49;;;;;;;4.72;2.47;;;;;;;5.78;100.00;103043.09;4890541;29;20445;-95
2024/01/11 19:20:15;;;;;;;6.93;2.47;;;;;;;5.81;100.00;103056.94;4891608;29;20145;-95
2024/01/11 19:22:41;;;;;;;3.05;2.30;;;;;;;5.78;100.00;103046.56;4898043;29;20054;-95